createdAt,value
2018-05-13T00:01:06.794Z,13.37
2018-05-13T00:04:19.646Z,15.90
2018-05-13T00:07:24.712Z,14.17
2018-05-13T00:10:27.452Z,18.47
2018-05-13T00:13:34.487Z,14.87
2018-05-13T00:16:37.374Z,13.27
2018-05-13T00:19:39.998Z,16.23
2018-05-13T00:22:42.620Z,15.00
2018-05-13T00:25:45.276Z,12.97
2018-05-13T00:28:47.939Z,15.20
2018-05-13T00:31:50.622Z,15.53
2018-05-13T00:34:53.194Z,14.87
2018-05-13T00:37:55.780Z,13.43
2018-05-13T00:40:58.362Z,14.60
2018-05-13T00:44:01.558Z,13.33
2018-05-13T00:47:04.109Z,14.23
2018-05-13T00:50:08.501Z,17.20
2018-05-13T00:53:11.148Z,14.70
2018-05-13T00:56:13.900Z,13.30
2018-05-13T00:59:16.619Z,13.70
2018-05-13T01:02:19.228Z,16.30
2018-05-13T01:05:21.886Z,16.20
2018-05-13T01:08:24.470Z,18.60
2018-05-13T01:11:27.102Z,14.60
2018-05-13T01:14:29.668Z,15.53
2018-05-13T01:17:32.283Z,15.60
2018-05-13T01:20:34.832Z,17.17
2018-05-13T01:23:37.389Z,18.23
2018-05-13T01:26:39.959Z,16.40
2018-05-13T01:29:42.540Z,15.67
2018-05-13T01:32:45.069Z,18.50
2018-05-13T01:35:47.622Z,15.37
2018-05-13T01:38:50.190Z,17.60
2018-05-13T01:41:52.868Z,16.83
2018-05-13T01:44:55.415Z,16.73
2018-05-13T01:47:57.976Z,16.57
2018-05-13T01:51:00.537Z,17.47
2018-05-13T01:54:03.096Z,17.30
2018-05-13T01:57:05.667Z,17.53
2018-05-13T02:00:09.168Z,17.40
2018-05-13T02:03:11.786Z,17.03
2018-05-13T02:06:14.400Z,17.40
2018-05-13T02:09:20.002Z,18.60
2018-05-13T02:12:22.687Z,18.43
2018-05-13T02:15:28.106Z,20.47
2018-05-13T02:18:30.665Z,17.80
2018-05-13T02:21:33.419Z,20.50
2018-05-13T02:24:45.354Z,21.47
2018-05-13T02:27:48.637Z,22.87
2018-05-13T02:30:53.215Z,19.57
2018-05-13T02:33:55.772Z,20.67
2018-05-13T02:36:59.191Z,21.37
2018-05-13T02:40:01.753Z,22.87
2018-05-13T02:43:04.761Z,25.37
2018-05-13T02:46:08.570Z,21.17
2018-05-13T02:49:11.161Z,20.53
2018-05-13T02:52:14.803Z,22.57
2018-05-13T02:55:17.555Z,22.83
2018-05-13T02:58:21.339Z,22.23
2018-05-13T03:01:24.824Z,22.93
2018-05-13T03:04:28.468Z,25.30
2018-05-13T03:07:31.109Z,23.70
2018-05-13T03:10:33.688Z,25.73
2018-05-13T03:13:36.285Z,23.63
2018-05-13T03:16:38.965Z,23.90
2018-05-13T03:19:41.538Z,23.97
2018-05-13T03:22:44.963Z,25.40
2018-05-13T03:25:47.649Z,24.20
2018-05-13T03:28:50.581Z,24.40
2018-05-13T03:31:53.142Z,24.93
2018-05-13T03:34:59.591Z,26.53
2018-05-13T03:38:02.162Z,24.23
2018-05-13T03:41:04.726Z,38.93
2018-05-13T03:44:07.270Z,48.43
2018-05-13T03:47:09.926Z,49.43
2018-05-13T03:50:12.431Z,35.37
2018-05-13T03:53:14.987Z,30.10
2018-05-13T03:56:17.557Z,30.53
2018-05-13T03:59:20.117Z,30.60
2018-05-13T04:02:22.720Z,28.83
2018-05-13T04:05:25.781Z,27.90
2018-05-13T04:08:48.847Z,26.90
2018-05-13T04:12:03.092Z,27.87
2018-05-13T04:15:17.350Z,28.07
2018-05-13T04:18:20.048Z,26.57
2018-05-13T04:21:22.605Z,27.07
2018-05-13T04:24:25.185Z,33.47
2018-05-13T04:27:27.754Z,32.93
2018-05-13T04:30:31.305Z,30.30
2018-05-13T04:33:33.836Z,29.20
2018-05-13T04:36:36.520Z,33.00
2018-05-13T04:39:39.089Z,31.37
2018-05-13T04:42:41.729Z,29.23
2018-05-13T04:45:44.290Z,30.90
2018-05-13T04:48:46.937Z,30.50
2018-05-13T04:51:49.509Z,51.10
2018-05-13T04:54:52.145Z,50.53
2018-05-13T04:57:54.838Z,42.27
2018-05-13T05:00:57.418Z,36.83
2018-05-13T05:03:59.978Z,48.47
2018-05-13T05:07:02.512Z,44.50
2018-05-13T05:10:05.150Z,49.43
2018-05-13T05:13:07.678Z,47.17
2018-05-13T05:16:10.174Z,55.93
2018-05-13T05:19:12.701Z,65.80
2018-05-13T05:22:15.277Z,44.47
2018-05-13T05:25:17.790Z,38.07
2018-05-13T05:28:20.414Z,35.50
2018-05-13T05:31:22.914Z,29.97
2018-05-13T05:34:25.471Z,46.97
2018-05-13T05:37:28.030Z,41.47
2018-05-13T05:40:30.529Z,44.53
2018-05-13T05:43:33.163Z,78.90
2018-05-13T05:46:35.707Z,89.77
2018-05-13T05:49:38.278Z,42.93
2018-05-13T05:52:40.876Z,35.23
2018-05-13T05:55:43.445Z,38.30
2018-05-13T05:58:46.995Z,33.10
2018-05-13T06:05:32.953Z,29.00
2018-05-13T06:08:36.875Z,22.23
2018-05-13T06:11:41.174Z,24.23
2018-05-13T09:40:36.380Z,10.57
2018-05-13T09:43:51.510Z,10.43
2018-05-13T09:46:54.097Z,16.57
2018-05-13T10:47:41.705Z,9.37
2018-05-13T10:50:49.485Z,23.90
2018-05-13T10:54:23.524Z,10.23
2018-05-13T11:06:42.039Z,10.17
2018-05-13T11:10:00.711Z,7.23
2018-05-13T11:13:03.387Z,6.83
2018-05-13T11:16:28.662Z,6.83
2018-05-13T11:30:23.339Z,6.30
2018-05-13T11:33:34.030Z,7.87
2018-05-13T11:40:17.014Z,6.30
2018-05-13T11:46:49.893Z,8.40
2018-05-13T11:50:08.972Z,5.53
2018-05-13T11:59:47.642Z,4.67
2018-05-13T12:03:02.465Z,6.10
2018-05-13T12:06:09.477Z,7.07
2018-05-13T12:09:52.294Z,4.93
2018-05-13T12:13:05.750Z,8.30
2018-05-13T12:16:09.813Z,6.90
2018-05-13T12:22:27.364Z,5.93
2018-05-13T12:34:32.395Z,10.47
2018-05-13T12:37:43.917Z,31.30
2018-05-13T12:41:01.026Z,11.87
2018-05-13T12:44:05.777Z,7.83
2018-05-13T12:47:09.654Z,7.67
2018-05-13T12:50:22.126Z,7.27
2018-05-13T12:54:05.004Z,6.97
2018-05-13T12:57:22.580Z,6.53
2018-05-13T13:03:32.119Z,14.03
2018-05-13T13:06:51.270Z,9.83
2018-05-13T13:10:08.814Z,6.07
2018-05-13T13:13:15.346Z,10.87
2018-05-13T13:16:26.956Z,6.13
2018-05-13T13:22:54.487Z,10.13
2018-05-13T13:26:03.719Z,8.70
2018-05-13T13:29:07.499Z,5.97
2018-05-13T13:32:19.045Z,6.40
2018-05-13T13:35:25.105Z,13.33
2018-05-13T13:38:31.672Z,39.83
2018-05-13T13:41:35.817Z,14.93
2018-05-13T13:44:39.138Z,11.83
2018-05-13T13:47:43.051Z,5.67
2018-05-13T13:50:45.770Z,4.43
2018-05-13T13:53:49.074Z,6.83
2018-05-13T13:56:51.866Z,20.63
2018-05-13T14:00:05.222Z,14.93
2018-05-13T14:03:12.915Z,8.97
2018-05-13T14:06:18.519Z,7.93
2018-05-13T14:09:21.385Z,8.83
2018-05-13T14:12:43.465Z,5.93
2018-05-13T14:15:47.239Z,7.77
2018-05-13T14:18:51.615Z,7.50
2018-05-13T14:21:58.341Z,5.50
2018-05-13T14:25:05.989Z,10.17
2018-05-13T14:28:16.457Z,33.67
2018-05-13T14:31:25.119Z,22.57
2018-05-13T14:34:29.194Z,9.03
2018-05-13T14:40:53.655Z,6.83
2018-05-13T14:47:26.981Z,7.93
2018-05-13T14:54:34.754Z,8.30
2018-05-13T14:57:58.531Z,13.00
2018-05-13T15:01:24.814Z,32.30
2018-05-13T15:08:15.377Z,27.50
2018-05-13T15:11:19.816Z,16.47
2018-05-13T15:17:51.705Z,5.77
2018-05-13T15:20:54.475Z,9.53
2018-05-13T15:23:58.391Z,17.03
2018-05-13T15:27:00.924Z,10.07
2018-05-13T15:30:03.475Z,5.57
2018-05-13T15:33:06.823Z,5.27
2018-05-13T15:36:09.378Z,10.87
2018-05-13T15:39:11.893Z,6.20
2018-05-13T15:42:14.469Z,12.53
2018-05-13T15:45:17.073Z,7.67
2018-05-13T15:48:21.327Z,10.20
2018-05-13T15:51:23.881Z,7.07
2018-05-13T15:54:26.405Z,5.40
2018-05-13T15:57:28.997Z,7.73
2018-05-13T16:00:31.599Z,12.23
2018-05-13T16:03:34.170Z,7.43
2018-05-13T16:06:36.774Z,10.90
2018-05-13T16:09:39.314Z,6.67
2018-05-13T16:12:41.847Z,14.97
2018-05-13T16:15:44.429Z,10.57
2018-05-13T16:18:46.956Z,8.67
2018-05-13T16:21:49.485Z,7.73
2018-05-13T16:24:52.036Z,5.83
2018-05-13T16:27:54.551Z,8.37
2018-05-13T16:30:57.196Z,4.83
2018-05-13T16:33:59.940Z,21.13
2018-05-13T16:37:02.467Z,18.47
2018-05-13T16:40:05.173Z,9.40
2018-05-13T16:43:07.722Z,20.53
2018-05-13T16:46:10.304Z,15.70
2018-05-13T16:49:12.858Z,8.63
2018-05-13T16:52:15.400Z,7.63
2018-05-13T16:55:17.957Z,8.53
2018-05-13T16:58:20.522Z,8.90
2018-05-13T17:01:23.055Z,9.80
2018-05-13T17:04:25.923Z,5.37
2018-05-13T17:07:28.609Z,8.23
2018-05-13T17:10:31.297Z,12.03
2018-05-13T17:13:33.881Z,5.80
2018-05-13T17:16:36.545Z,4.73
2018-05-13T17:19:39.104Z,5.43
2018-05-13T17:22:41.792Z,8.10
2018-05-13T17:25:44.396Z,5.43
2018-05-13T17:28:47.140Z,5.20
2018-05-13T17:31:49.720Z,10.33
2018-05-13T17:34:52.369Z,7.13
2018-05-13T17:37:55.022Z,10.50
2018-05-13T17:40:58.790Z,7.17
2018-05-13T17:44:02.422Z,5.50
2018-05-13T17:47:05.098Z,7.47
2018-05-13T17:50:08.280Z,4.20
2018-05-13T17:53:14.348Z,5.53
2018-05-13T17:56:16.950Z,4.97
2018-05-13T17:59:19.754Z,3.83
2018-05-13T18:02:22.627Z,13.23
2018-05-13T18:05:25.788Z,10.47
2018-05-13T18:08:28.624Z,7.47
2018-05-13T18:11:31.276Z,8.73
2018-05-13T18:14:34.083Z,8.80
2018-05-13T18:17:36.998Z,8.10
2018-05-13T18:20:40.272Z,5.67
2018-05-13T18:23:43.855Z,4.23
2018-05-13T18:26:47.204Z,6.80
2018-05-13T18:29:52.224Z,7.37
2018-05-13T18:32:55.102Z,7.23
2018-05-13T18:35:58.274Z,5.97
2018-05-13T18:39:03.394Z,6.97
2018-05-13T18:45:41.674Z,9.87
2018-05-13T18:48:45.498Z,10.20
2018-05-13T18:51:53.180Z,7.97
2018-05-13T18:54:56.941Z,5.50
2018-05-13T19:19:33.605Z,6.43
2018-05-13T19:29:45.360Z,10.60
2018-05-13T19:32:49.165Z,7.57
2018-05-13T19:35:51.908Z,10.10
2018-05-13T19:38:55.075Z,11.47
2018-05-13T19:41:57.990Z,7.73
2018-05-13T19:45:09.738Z,10.13
2018-05-13T19:48:18.365Z,10.00
2018-05-13T19:55:01.717Z,9.33
2018-05-13T19:58:04.418Z,9.83
2018-05-13T20:01:07.270Z,8.97
2018-05-13T20:04:09.989Z,9.70
2018-05-13T20:07:13.596Z,8.67
2018-05-13T20:10:16.495Z,5.83
2018-05-13T20:16:33.056Z,8.63
2018-05-13T20:19:46.464Z,14.83
2018-05-13T20:23:02.071Z,31.70
2018-05-13T20:26:04.766Z,9.73
2018-05-13T20:29:07.436Z,7.47
2018-05-13T20:32:12.539Z,6.87
2018-05-13T20:35:15.299Z,10.00
2018-05-13T20:38:19.058Z,8.77
2018-05-13T20:41:21.780Z,8.53
2018-05-13T20:44:33.583Z,8.43
2018-05-13T20:47:36.353Z,7.80
2018-05-13T20:50:38.993Z,7.27
2018-05-13T20:53:51.007Z,6.40
2018-05-13T20:57:07.210Z,5.93
2018-05-13T21:00:10.276Z,19.27
2018-05-13T21:03:12.857Z,15.90
2018-05-13T21:06:19.120Z,7.87
2018-05-13T21:10:48.987Z,5.57
2018-05-13T21:13:51.626Z,4.83
2018-05-13T21:16:54.209Z,5.33
2018-05-13T21:19:56.831Z,8.20
2018-05-13T21:22:59.415Z,8.03
2018-05-13T21:33:42.965Z,8.37
2018-05-13T21:36:45.525Z,8.80
2018-05-13T21:39:48.183Z,7.10
2018-05-13T21:42:50.823Z,6.83
2018-05-13T21:45:53.460Z,6.67
2018-05-13T21:48:56.072Z,6.70
2018-05-13T21:51:58.759Z,5.97
2018-05-13T21:55:01.404Z,21.47
2018-05-13T21:58:04.788Z,14.90
2018-05-13T22:01:09.799Z,6.93
2018-05-13T22:04:13.129Z,7.23
2018-05-13T22:07:15.683Z,5.93
2018-05-13T22:10:18.423Z,7.03
2018-05-13T22:13:21.057Z,5.83
2018-05-13T22:16:23.727Z,10.07
2018-05-13T22:19:26.480Z,9.97
2018-05-13T22:22:30.236Z,7.10
2018-05-13T22:25:33.950Z,5.97
2018-05-13T22:28:38.673Z,5.90
2018-05-13T22:31:44.314Z,7.07
2018-05-13T22:34:48.356Z,99.50
2018-05-13T22:48:01.247Z,6.33
2018-05-13T22:51:04.812Z,6.73
2018-05-13T22:54:08.418Z,6.57
2018-05-13T22:57:18.792Z,8.30
2018-05-13T23:00:21.384Z,8.13
2018-05-13T23:03:25.432Z,5.60
2018-05-13T23:06:30.926Z,8.33
2018-05-13T23:09:33.682Z,5.23
2018-05-13T23:12:36.854Z,6.77
2018-05-13T23:15:39.460Z,6.27
2018-05-13T23:18:42.865Z,5.57
2018-05-13T23:21:45.659Z,5.40
2018-05-13T23:24:48.271Z,5.37
2018-05-13T23:27:55.703Z,5.03
2018-05-13T23:30:58.240Z,5.60
2018-05-13T23:34:00.792Z,7.47
2018-05-13T23:37:03.359Z,5.33
2018-05-13T23:40:05.931Z,10.10
2018-05-13T23:43:08.468Z,7.83
2018-05-13T23:46:11.028Z,7.00
2018-05-13T23:49:13.583Z,6.80
2018-05-13T23:52:16.158Z,11.00
2018-05-13T23:55:18.729Z,6.37
2018-05-13T23:58:21.280Z,7.20
